createdAt,value
2017-10-08T00:01:39.535Z,2.70
2017-10-08T00:04:07.052Z,1.97
2017-10-08T00:06:34.547Z,2.07
2017-10-08T00:09:02.181Z,3.03
2017-10-08T00:11:29.676Z,2.67
2017-10-08T00:13:57.183Z,2.00
2017-10-08T00:16:30.448Z,2.53
2017-10-08T00:18:57.960Z,2.43
2017-10-08T00:21:25.583Z,1.87
2017-10-08T00:23:53.088Z,2.30
2017-10-08T00:26:20.661Z,2.70
2017-10-08T00:28:48.565Z,1.60
2017-10-08T00:31:16.175Z,2.53
2017-10-08T00:33:44.107Z,1.30
2017-10-08T00:36:11.882Z,1.83
2017-10-08T00:38:39.784Z,2.13
2017-10-08T00:41:08.323Z,2.10
2017-10-08T00:43:35.831Z,1.40
2017-10-08T00:46:03.490Z,1.53
2017-10-08T00:48:31.003Z,1.93
2017-10-08T00:50:58.764Z,1.80
2017-10-08T00:53:26.268Z,1.50
2017-10-08T00:55:53.969Z,1.80
2017-10-08T00:58:21.747Z,1.93
2017-10-08T01:00:49.512Z,1.70
2017-10-08T01:03:17.276Z,1.30
2017-10-08T01:05:45.224Z,1.53
2017-10-08T01:08:12.772Z,1.20
2017-10-08T01:10:40.276Z,1.40
2017-10-08T01:13:09.291Z,1.30
2017-10-08T01:15:36.799Z,2.30
2017-10-08T01:18:04.300Z,1.50
2017-10-08T01:20:31.904Z,1.80
2017-10-08T01:22:59.412Z,1.90
2017-10-08T01:25:28.428Z,2.33
2017-10-08T01:27:55.940Z,2.00
2017-10-08T01:30:23.427Z,1.90
2017-10-08T01:32:51.060Z,2.43
2017-10-08T01:35:18.824Z,2.40
2017-10-08T01:37:46.331Z,2.83
2017-10-08T01:40:14.043Z,2.63
2017-10-08T01:42:41.556Z,2.80
2017-10-08T01:45:09.060Z,2.83
2017-10-08T01:47:36.683Z,2.50
2017-10-08T01:50:04.211Z,2.60
2017-10-08T01:52:31.860Z,2.80
2017-10-08T01:55:00.317Z,3.17
2017-10-08T01:57:27.828Z,3.37
2017-10-08T01:59:55.501Z,2.60
2017-10-08T02:02:23.313Z,2.90
2017-10-08T02:04:50.807Z,4.10
2017-10-08T02:07:18.334Z,2.50
2017-10-08T02:09:45.808Z,2.70
2017-10-08T02:12:14.079Z,2.63
2017-10-08T02:14:41.648Z,2.73
2017-10-08T02:17:09.932Z,2.90
2017-10-08T02:19:37.639Z,3.33
2017-10-08T02:22:05.405Z,2.27
2017-10-08T02:24:33.172Z,2.43
2017-10-08T02:27:00.672Z,1.93
2017-10-08T02:29:28.696Z,1.77
2017-10-08T02:31:56.408Z,1.43
2017-10-08T02:34:23.912Z,1.80
2017-10-08T02:36:52.042Z,1.60
2017-10-08T02:39:19.542Z,2.03
2017-10-08T02:41:47.031Z,1.67
2017-10-08T02:44:14.559Z,0.97
2017-10-08T02:46:42.084Z,1.37
2017-10-08T02:49:09.592Z,1.90
2017-10-08T02:51:37.101Z,1.33
2017-10-08T02:54:04.805Z,1.60
2017-10-08T02:56:32.555Z,1.20
2017-10-08T02:59:00.071Z,0.83
2017-10-08T03:01:27.610Z,1.10
2017-10-08T03:03:55.931Z,1.00
2017-10-08T03:06:23.440Z,1.20
2017-10-08T03:08:51.334Z,1.10
2017-10-08T03:11:18.847Z,1.27
2017-10-08T03:13:46.343Z,1.33
2017-10-08T03:16:14.137Z,1.33
2017-10-08T03:18:41.760Z,1.13
2017-10-08T03:21:09.283Z,0.97
2017-10-08T03:23:36.783Z,1.30
2017-10-08T03:26:04.474Z,0.83
2017-10-08T03:28:31.968Z,0.80
2017-10-08T03:30:59.500Z,1.53
2017-10-08T03:33:27.172Z,1.10
2017-10-08T03:35:54.931Z,0.77
2017-10-08T03:38:22.703Z,0.80
2017-10-08T03:40:50.461Z,0.93
2017-10-08T03:43:18.224Z,0.83
2017-10-08T03:45:45.989Z,1.43
2017-10-08T03:48:13.751Z,1.00
2017-10-08T03:50:41.528Z,0.80
2017-10-08T03:53:09.032Z,1.50
2017-10-08T03:55:36.700Z,2.50
2017-10-08T03:58:04.500Z,1.10
2017-10-08T04:00:32.260Z,0.90
2017-10-08T04:02:59.764Z,0.90
2017-10-08T04:05:27.448Z,1.40
2017-10-08T04:07:55.248Z,1.13
2017-10-08T04:10:22.743Z,1.07
2017-10-08T04:12:50.364Z,1.40
2017-10-08T04:15:17.883Z,0.80
2017-10-08T04:17:45.388Z,0.90
2017-10-08T04:20:12.896Z,0.97
2017-10-08T04:22:40.412Z,1.57
2017-10-08T04:25:08.025Z,1.30
2017-10-08T04:27:35.533Z,1.40
2017-10-08T04:30:03.051Z,1.77
2017-10-08T04:32:30.696Z,0.90
2017-10-08T04:34:58.236Z,1.00
2017-10-08T04:37:25.956Z,1.63
2017-10-08T04:39:53.716Z,1.30
2017-10-08T04:42:21.736Z,1.13
2017-10-08T04:44:49.238Z,0.93
2017-10-08T04:47:16.842Z,1.47
2017-10-08T04:49:45.116Z,0.80
2017-10-08T04:52:12.848Z,0.90
2017-10-08T04:54:40.360Z,1.30
2017-10-08T04:57:08.042Z,1.17
2017-10-08T04:59:35.548Z,0.80
2017-10-08T05:02:03.243Z,1.13
2017-10-08T05:04:30.756Z,0.90
2017-10-08T05:06:58.394Z,1.03
2017-10-08T05:09:25.900Z,1.53
2017-10-08T05:11:53.799Z,1.13
2017-10-08T05:14:21.487Z,1.20
2017-10-08T05:16:48.986Z,1.27
2017-10-08T05:19:16.686Z,1.30
2017-10-08T05:21:44.196Z,1.00
2017-10-08T05:24:11.931Z,1.33
2017-10-08T05:26:39.423Z,1.50
2017-10-08T05:29:07.036Z,1.10
2017-10-08T05:31:34.607Z,1.13
2017-10-08T05:34:02.368Z,1.30
2017-10-08T05:36:29.869Z,1.80
2017-10-08T05:38:57.588Z,1.07
2017-10-08T05:41:25.368Z,1.93
2017-10-08T05:43:54.371Z,1.43
2017-10-08T05:46:22.095Z,1.70
2017-10-08T05:48:49.597Z,1.37
2017-10-08T05:51:18.227Z,1.50
2017-10-08T05:53:45.722Z,1.40
2017-10-08T05:56:13.441Z,1.87
2017-10-08T05:58:41.064Z,1.30
2017-10-08T06:01:09.332Z,1.10
2017-10-08T06:03:37.028Z,1.83
2017-10-08T06:06:04.826Z,1.70
2017-10-08T06:08:32.840Z,1.77
2017-10-08T06:11:00.356Z,1.60
2017-10-08T06:13:28.731Z,1.43
2017-10-08T06:15:56.803Z,1.30
2017-10-08T06:18:24.302Z,1.90
2017-10-08T06:20:51.803Z,1.87
2017-10-08T06:23:19.484Z,2.60
2017-10-08T06:25:47.037Z,1.23
2017-10-08T06:28:14.543Z,2.03
2017-10-08T06:30:42.807Z,1.63
2017-10-08T06:33:10.316Z,1.90
2017-10-08T06:35:37.960Z,2.30
2017-10-08T06:38:06.063Z,2.07
2017-10-08T06:40:33.824Z,2.47
2017-10-08T06:43:01.328Z,1.50
2017-10-08T06:45:28.831Z,1.67
2017-10-08T06:47:56.337Z,2.20
2017-10-08T06:50:24.676Z,1.73
2017-10-08T06:52:53.339Z,5.47
2017-10-08T06:55:20.881Z,2.17
2017-10-08T06:57:49.143Z,3.20
2017-10-08T07:00:17.143Z,1.70
2017-10-08T07:02:44.927Z,1.63
2017-10-08T07:05:12.694Z,3.33
2017-10-08T07:07:40.421Z,2.00
2017-10-08T07:10:08.185Z,4.40
2017-10-08T07:12:35.980Z,2.43
2017-10-08T07:15:03.492Z,1.40
2017-10-08T07:17:31.206Z,2.83
2017-10-08T07:19:58.707Z,2.43
2017-10-08T07:22:26.233Z,1.97
2017-10-08T07:24:53.732Z,2.30
2017-10-08T07:27:22.000Z,1.63
2017-10-08T07:29:49.711Z,1.30
2017-10-08T07:32:17.212Z,1.93
2017-10-08T07:34:44.827Z,2.53
2017-10-08T07:37:12.573Z,1.77
2017-10-08T07:39:40.150Z,2.07
2017-10-08T07:42:07.656Z,1.70
2017-10-08T07:44:35.159Z,2.60
2017-10-08T07:47:03.764Z,2.57
2017-10-08T07:49:31.827Z,1.80
2017-10-08T07:51:59.349Z,1.60
2017-10-08T07:54:27.059Z,1.93
2017-10-08T07:56:54.620Z,2.23
2017-10-08T07:59:22.280Z,2.27
2017-10-08T08:01:50.184Z,2.30
2017-10-08T08:04:18.713Z,1.97
2017-10-08T08:06:46.219Z,1.63
2017-10-08T08:09:13.898Z,1.80
2017-10-08T08:11:41.404Z,1.67
2017-10-08T08:14:08.912Z,1.40
2017-10-08T08:16:36.408Z,1.83
2017-10-08T08:19:04.377Z,4.60
2017-10-08T08:21:32.140Z,1.37
2017-10-08T08:23:59.901Z,1.53
2017-10-08T08:26:27.675Z,1.50
2017-10-08T08:28:55.172Z,1.40
2017-10-08T08:31:22.884Z,1.80
2017-10-08T08:33:50.379Z,1.43
2017-10-08T08:36:18.109Z,2.23
2017-10-08T08:38:45.617Z,1.63
2017-10-08T08:41:13.115Z,1.47
2017-10-08T08:43:40.784Z,1.17
2017-10-08T08:46:08.403Z,1.37
2017-10-08T08:48:35.973Z,2.03
2017-10-08T08:51:03.487Z,1.70
2017-10-08T08:53:31.191Z,1.90
2017-10-08T08:55:58.704Z,1.70
2017-10-08T08:58:26.210Z,1.33
2017-10-08T09:00:53.769Z,3.67
2017-10-08T09:03:21.263Z,1.23
2017-10-08T09:05:49.186Z,3.67
2017-10-08T09:08:16.851Z,3.00
2017-10-08T09:10:44.350Z,1.70
2017-10-08T09:13:11.861Z,1.93
2017-10-08T09:15:39.475Z,1.00
2017-10-08T09:18:07.932Z,2.27
2017-10-08T09:20:35.432Z,1.40
2017-10-08T09:23:02.948Z,1.10
2017-10-08T09:25:30.571Z,0.90
2017-10-08T09:27:58.071Z,0.70
2017-10-08T09:30:25.575Z,0.97
2017-10-08T09:32:53.284Z,1.17
2017-10-08T09:35:20.788Z,0.93
2017-10-08T09:37:48.505Z,0.90
2017-10-08T09:40:16.272Z,1.00
2017-10-08T09:42:43.776Z,0.80
2017-10-08T09:45:11.487Z,0.87
2017-10-08T09:47:39.251Z,1.00
2017-10-08T09:50:06.754Z,1.03
2017-10-08T09:52:34.249Z,0.80
2017-10-08T09:55:01.935Z,0.87
2017-10-08T09:57:29.959Z,0.93
2017-10-08T09:59:57.476Z,0.70
2017-10-08T10:02:25.226Z,0.77
2017-10-08T10:04:52.739Z,0.90
2017-10-08T10:07:20.684Z,0.70
2017-10-08T10:09:48.190Z,0.87
2017-10-08T10:12:15.687Z,0.60
2017-10-08T10:14:43.201Z,0.80
2017-10-08T10:17:10.705Z,0.60
2017-10-08T10:19:39.016Z,1.07
2017-10-08T10:22:07.639Z,1.03
2017-10-08T10:24:35.147Z,0.90
2017-10-08T10:27:02.663Z,0.83
2017-10-08T10:29:30.319Z,0.67
2017-10-08T10:31:57.817Z,0.70
2017-10-08T10:34:25.536Z,0.70
2017-10-08T10:36:53.292Z,0.97
2017-10-08T10:39:20.912Z,1.67
2017-10-08T10:41:48.423Z,1.00
2017-10-08T10:44:15.931Z,0.57
2017-10-08T10:46:43.737Z,0.80
2017-10-08T10:49:11.246Z,1.33
2017-10-08T10:51:39.588Z,1.10
2017-10-08T10:54:07.095Z,0.80
2017-10-08T10:56:34.588Z,0.80
2017-10-08T10:59:02.244Z,1.07
2017-10-08T11:01:30.010Z,0.93
2017-10-08T11:03:58.333Z,1.10
2017-10-08T11:06:26.236Z,1.37
2017-10-08T11:08:53.735Z,0.73
2017-10-08T11:11:21.376Z,1.30
2017-10-08T11:13:49.638Z,0.90
2017-10-08T11:16:17.203Z,0.90
2017-10-08T11:18:44.710Z,0.87
2017-10-08T11:21:12.391Z,0.77
2017-10-08T11:23:39.892Z,1.13
2017-10-08T11:26:07.404Z,1.37
2017-10-08T11:28:34.900Z,2.00
2017-10-08T11:31:02.829Z,1.33
2017-10-08T11:33:30.322Z,1.57
2017-10-08T11:35:58.708Z,1.33
2017-10-08T11:38:26.607Z,1.20
2017-10-08T11:40:54.872Z,1.73
2017-10-08T11:43:23.617Z,1.43
2017-10-08T11:45:51.289Z,1.13
2017-10-08T11:48:19.324Z,0.80
2017-10-08T11:50:47.620Z,1.23
2017-10-08T11:53:15.177Z,1.10
2017-10-08T11:55:43.571Z,0.93
2017-10-08T11:58:11.666Z,0.80
2017-10-08T12:00:39.170Z,1.00
2017-10-08T12:03:06.844Z,1.33
2017-10-08T12:05:35.244Z,1.10
2017-10-08T12:08:02.744Z,1.33
2017-10-08T12:10:30.244Z,0.83
2017-10-08T12:12:57.750Z,1.30
2017-10-08T12:15:26.420Z,1.10
2017-10-08T12:17:54.068Z,0.90
2017-10-08T12:20:22.332Z,1.17
2017-10-08T12:22:49.866Z,0.87
2017-10-08T12:25:17.419Z,1.10
2017-10-08T12:27:45.615Z,0.80
2017-10-08T12:30:14.103Z,0.77
2017-10-08T12:32:41.868Z,0.60
2017-10-08T12:35:09.907Z,0.90
2017-10-08T12:37:38.116Z,1.83
2017-10-08T12:40:05.775Z,1.50
2017-10-08T12:42:33.278Z,1.27
2017-10-08T12:45:00.899Z,1.00
2017-10-08T12:47:28.453Z,1.03
2017-10-08T12:49:55.962Z,0.67
2017-10-08T12:52:23.632Z,0.97
2017-10-08T12:54:52.057Z,1.03
2017-10-08T12:57:19.557Z,1.70
2017-10-08T12:59:47.267Z,1.47
2017-10-08T13:02:14.776Z,1.10
2017-10-08T13:04:42.467Z,1.00
2017-10-08T13:07:09.964Z,1.27
2017-10-08T13:09:37.676Z,1.00
2017-10-08T13:12:05.201Z,0.90
2017-10-08T13:14:32.715Z,1.10
2017-10-08T13:17:00.345Z,1.83
2017-10-08T13:19:27.868Z,1.20
2017-10-08T13:21:55.572Z,1.60
2017-10-08T13:24:23.468Z,1.37
2017-10-08T13:26:51.339Z,2.17
2017-10-08T13:29:18.852Z,1.97
2017-10-08T13:31:47.579Z,0.90
2017-10-08T13:34:15.393Z,1.03
2017-10-08T13:36:43.116Z,1.00
2017-10-08T13:39:10.867Z,1.00
2017-10-08T13:41:38.376Z,1.07
2017-10-08T13:44:05.872Z,1.33
2017-10-08T13:46:34.346Z,2.23
2017-10-08T13:49:02.541Z,1.80
2017-10-08T13:51:30.307Z,1.47
2017-10-08T13:53:57.808Z,1.53
2017-10-08T13:56:25.731Z,1.10
2017-10-08T13:58:53.263Z,1.27
2017-10-08T14:01:21.057Z,0.90
2017-10-08T14:03:49.320Z,1.07
2017-10-08T14:06:16.840Z,0.90
2017-10-08T14:08:44.344Z,1.07
2017-10-08T14:11:12.067Z,0.97
2017-10-08T14:13:39.576Z,0.90
2017-10-08T14:16:07.633Z,1.10
2017-10-08T14:18:35.136Z,0.80
2017-10-08T14:21:02.839Z,1.43
2017-10-08T14:23:30.619Z,1.20
2017-10-08T14:25:58.706Z,0.90
2017-10-08T14:28:26.241Z,1.23
2017-10-08T14:30:53.744Z,2.60
2017-10-08T14:33:22.008Z,0.87
2017-10-08T14:35:50.026Z,1.20
2017-10-08T14:38:17.818Z,1.10
2017-10-08T14:40:45.328Z,1.20
2017-10-08T14:43:13.026Z,1.00
2017-10-08T14:45:40.816Z,0.87
2017-10-08T14:48:08.555Z,1.33
2017-10-08T14:50:36.324Z,0.70
2017-10-08T14:53:04.695Z,0.80
2017-10-08T14:55:32.205Z,1.10
2017-10-08T14:58:00.202Z,0.93
2017-10-08T15:00:28.008Z,0.97
2017-10-08T15:02:55.511Z,1.00
2017-10-08T15:05:23.019Z,1.00
2017-10-08T15:07:51.396Z,1.10
2017-10-08T15:10:18.908Z,1.20
2017-10-08T15:12:46.463Z,2.70
2017-10-08T15:15:15.512Z,0.80
2017-10-08T15:17:43.018Z,1.20
2017-10-08T15:20:10.527Z,1.00
2017-10-08T15:22:38.031Z,1.57
2017-10-08T15:25:05.633Z,0.70
2017-10-08T15:27:33.136Z,0.97
2017-10-08T15:30:00.817Z,0.80
2017-10-08T15:32:28.722Z,1.03
2017-10-08T15:34:57.303Z,1.30
2017-10-08T15:37:24.804Z,1.50
2017-10-08T15:39:52.480Z,1.10
2017-10-08T15:42:19.987Z,1.17
2017-10-08T15:44:47.492Z,1.00
2017-10-08T15:47:15.000Z,1.33
2017-10-08T15:49:42.648Z,1.10
2017-10-08T15:52:10.174Z,1.00
2017-10-08T15:54:37.663Z,1.20
2017-10-08T15:57:05.197Z,1.93
2017-10-08T15:59:33.396Z,1.00
2017-10-08T16:02:01.415Z,0.90
2017-10-08T16:04:28.932Z,1.10
2017-10-08T16:06:56.688Z,1.20
2017-10-08T16:09:24.193Z,1.10
2017-10-08T16:11:52.145Z,1.40
2017-10-08T16:14:19.640Z,1.27
2017-10-08T16:16:47.144Z,0.97
2017-10-08T16:19:14.650Z,1.07
2017-10-08T16:21:42.923Z,1.27
2017-10-08T16:24:10.724Z,0.83
2017-10-08T16:26:38.220Z,1.20
2017-10-08T16:29:05.724Z,1.00
2017-10-08T16:31:35.899Z,1.37
2017-10-08T16:34:03.409Z,1.43
2017-10-08T16:36:31.081Z,1.43
2017-10-08T16:38:58.843Z,2.03
2017-10-08T16:41:26.352Z,3.17
2017-10-08T16:43:54.374Z,2.10
2017-10-08T16:46:22.345Z,2.10
2017-10-08T16:48:49.880Z,2.00
2017-10-08T16:51:18.155Z,2.10
2017-10-08T16:53:46.382Z,4.70
2017-10-08T16:56:13.884Z,2.23
2017-10-08T16:58:42.524Z,1.90
2017-10-08T17:01:10.864Z,1.80
2017-10-08T17:03:38.370Z,1.47
2017-10-08T17:06:07.011Z,1.70
2017-10-08T17:08:35.292Z,1.50
2017-10-08T17:11:02.850Z,2.30
2017-10-08T17:13:31.150Z,1.90
2017-10-08T17:15:59.576Z,1.60
2017-10-08T17:18:27.075Z,2.07
2017-10-08T17:20:54.820Z,3.47
2017-10-08T17:23:22.332Z,5.20
2017-10-08T17:25:50.016Z,5.80
2017-10-08T17:28:18.228Z,12.43
2017-10-08T17:30:45.872Z,6.80
2017-10-08T17:33:14.217Z,4.33
2017-10-08T17:35:41.783Z,4.20
2017-10-08T17:38:09.461Z,5.90
2017-10-08T17:40:36.968Z,5.43
2017-10-08T17:43:05.232Z,3.67
2017-10-08T17:45:32.739Z,5.23
2017-10-08T17:48:00.239Z,3.80
2017-10-08T17:50:27.750Z,7.87
2017-10-08T17:52:55.260Z,7.03
2017-10-08T17:55:22.921Z,5.53
2017-10-08T17:57:51.174Z,4.60
2017-10-08T18:00:18.676Z,8.40
2017-10-08T18:02:46.588Z,6.90
2017-10-08T18:05:14.872Z,7.43
2017-10-08T18:07:42.940Z,6.63
2017-10-08T18:10:10.975Z,4.47
2017-10-08T18:12:38.492Z,6.67
2017-10-08T18:15:06.200Z,8.90
2017-10-08T18:17:33.703Z,5.90
2017-10-08T18:20:02.712Z,5.00
2017-10-08T18:22:31.001Z,5.90
2017-10-08T18:24:59.809Z,4.80
2017-10-08T18:27:28.068Z,5.13
2017-10-08T18:29:55.571Z,4.93
2017-10-08T18:32:23.623Z,7.10
2017-10-08T18:34:51.133Z,5.60
2017-10-08T18:37:18.872Z,7.63
2017-10-08T18:39:46.428Z,5.17
2017-10-08T18:42:14.329Z,4.90
2017-10-08T18:44:41.832Z,6.63
2017-10-08T18:47:09.336Z,4.90
2017-10-08T18:49:36.842Z,5.37
2017-10-08T18:52:04.353Z,4.40
2017-10-08T18:54:32.628Z,4.97
2017-10-08T18:57:00.132Z,6.50
2017-10-08T18:59:27.627Z,4.70
2017-10-08T19:01:55.531Z,4.67
2017-10-08T19:04:23.651Z,8.00
2017-10-08T19:06:51.723Z,6.57
2017-10-08T19:09:19.231Z,5.17
2017-10-08T19:11:46.876Z,5.40
2017-10-08T19:14:14.892Z,5.37
2017-10-08T19:16:42.480Z,4.77
2017-10-08T19:19:09.984Z,5.23
2017-10-08T19:21:37.488Z,10.60
2017-10-08T19:24:05.156Z,4.83
2017-10-08T19:26:32.911Z,5.33
2017-10-08T19:29:01.179Z,5.03
2017-10-08T19:31:28.705Z,5.23
2017-10-08T19:33:56.779Z,4.93
2017-10-08T19:36:24.271Z,4.40
2017-10-08T19:38:52.046Z,4.80
2017-10-08T19:41:19.540Z,5.50
2017-10-08T19:43:47.936Z,5.10
2017-10-08T19:46:15.435Z,5.13
2017-10-08T19:48:43.707Z,5.37
2017-10-08T19:51:11.219Z,5.93
2017-10-08T19:53:38.728Z,7.23
2017-10-08T19:56:06.652Z,6.30
2017-10-08T19:58:34.724Z,7.23
2017-10-08T20:01:02.527Z,8.00
2017-10-08T20:03:30.024Z,6.57
2017-10-08T20:05:57.929Z,7.37
2017-10-08T20:08:25.486Z,7.90
2017-10-08T20:10:52.987Z,7.50
2017-10-08T20:13:20.501Z,7.23
2017-10-08T20:15:48.187Z,7.50
2017-10-08T20:18:15.684Z,5.97
2017-10-08T20:20:43.196Z,6.83
2017-10-08T20:23:10.864Z,5.97
2017-10-08T20:25:38.924Z,5.73
2017-10-08T20:28:06.423Z,6.47
2017-10-08T20:30:34.927Z,6.17
2017-10-08T20:33:02.527Z,6.93
2017-10-08T20:35:30.028Z,6.43
2017-10-08T20:37:58.292Z,6.33
2017-10-08T20:40:25.800Z,6.47
2017-10-08T20:42:53.308Z,5.40
2017-10-08T20:45:20.921Z,5.73
2017-10-08T20:47:49.416Z,6.80
2017-10-08T20:50:18.036Z,6.17
2017-10-08T20:52:45.531Z,5.93
2017-10-08T20:55:13.440Z,5.93
2017-10-08T20:57:41.396Z,5.90
2017-10-08T21:00:09.156Z,5.60
2017-10-08T21:02:36.661Z,5.77
2017-10-08T21:05:04.987Z,4.90
2017-10-08T21:07:32.483Z,4.80
2017-10-08T21:10:00.816Z,4.77
2017-10-08T21:12:28.316Z,5.30
2017-10-08T21:14:56.052Z,6.10
2017-10-08T21:17:24.389Z,4.60
2017-10-08T21:19:51.892Z,4.70
2017-10-08T21:22:19.394Z,4.50
2017-10-08T21:24:47.104Z,4.30
2017-10-08T21:27:15.229Z,5.10
2017-10-08T21:29:43.491Z,4.90
2017-10-08T21:32:11.594Z,4.33
2017-10-08T21:34:39.084Z,4.40
2017-10-08T21:37:07.352Z,4.80
2017-10-08T21:39:35.621Z,5.77
2017-10-08T21:42:03.275Z,4.33
2017-10-08T21:44:31.056Z,5.10
2017-10-08T21:46:58.551Z,4.90
2017-10-08T21:49:26.278Z,4.77
2017-10-08T21:51:53.777Z,4.77
2017-10-08T21:54:21.491Z,5.20
2017-10-08T21:56:48.991Z,4.47
2017-10-08T21:59:16.928Z,5.37
2017-10-08T22:01:44.440Z,4.93
2017-10-08T22:04:11.948Z,4.23
2017-10-08T22:06:39.443Z,5.10
2017-10-08T22:09:07.132Z,4.80
2017-10-08T22:11:35.015Z,6.40
2017-10-08T22:14:03.289Z,5.27
2017-10-08T22:16:30.782Z,4.87
2017-10-08T22:18:58.519Z,4.83
2017-10-08T22:21:26.598Z,5.13
2017-10-08T22:23:54.963Z,6.60
2017-10-08T22:26:23.300Z,5.17
2017-10-08T22:28:51.391Z,5.03
2017-10-08T22:31:19.436Z,4.93
2017-10-08T22:33:47.254Z,4.60
2017-10-08T22:36:15.021Z,4.43
2017-10-08T22:38:42.771Z,4.63
2017-10-08T22:41:10.676Z,4.33
2017-10-08T22:43:38.178Z,4.20
2017-10-08T22:46:05.720Z,3.50
2017-10-08T22:48:34.131Z,4.00
2017-10-08T22:51:01.895Z,5.10
2017-10-08T22:53:29.396Z,2.83
2017-10-08T22:55:56.908Z,4.43
2017-10-08T22:58:24.512Z,3.67
2017-10-08T23:00:52.030Z,4.00
2017-10-08T23:03:19.527Z,3.60
2017-10-08T23:05:47.256Z,3.80
2017-10-08T23:08:14.756Z,3.57
2017-10-08T23:10:43.084Z,3.30
2017-10-08T23:13:11.115Z,5.17
2017-10-08T23:15:39.007Z,4.80
2017-10-08T23:18:06.511Z,3.80
2017-10-08T23:20:34.152Z,4.53
2017-10-08T23:23:01.644Z,3.90
2017-10-08T23:25:29.156Z,3.77
2017-10-08T23:27:56.652Z,4.60
2017-10-08T23:30:24.584Z,3.50
2017-10-08T23:32:52.345Z,4.20
2017-10-08T23:35:20.429Z,3.37
2017-10-08T23:37:47.937Z,3.13
2017-10-08T23:40:15.635Z,3.20
2017-10-08T23:42:43.263Z,4.20
2017-10-08T23:45:11.524Z,3.83
2017-10-08T23:47:39.791Z,4.43
2017-10-08T23:50:07.921Z,3.50
2017-10-08T23:52:35.651Z,3.63
2017-10-08T23:55:03.704Z,2.60
2017-10-08T23:57:31.208Z,3.50
2017-10-08T23:59:59.280Z,3.80
